createdAt,value
2019-06-26T00:01:56.655Z,5.00
2019-06-26T00:04:25.209Z,5.63
2019-06-26T00:06:55.117Z,5.57
2019-06-26T00:09:23.678Z,5.60
2019-06-26T00:11:52.338Z,5.93
2019-06-26T00:14:20.952Z,5.50
2019-06-26T00:16:49.618Z,5.80
2019-06-26T00:19:18.195Z,5.47
2019-06-26T00:21:46.737Z,5.40
2019-06-26T00:24:15.321Z,4.53
2019-06-26T00:26:43.879Z,4.30
2019-06-26T00:29:12.435Z,4.77
2019-06-26T00:31:41.014Z,4.40
2019-06-26T00:34:09.563Z,4.30
2019-06-26T00:36:38.114Z,4.30
2019-06-26T00:39:07.625Z,4.50
2019-06-26T00:41:36.185Z,3.87
2019-06-26T00:44:04.928Z,4.00
2019-06-26T00:46:33.453Z,3.77
2019-06-26T00:49:02.069Z,3.90
2019-06-26T00:51:30.726Z,3.60
2019-06-26T00:54:00.072Z,3.90
2019-06-26T00:56:28.625Z,3.90
2019-06-26T00:58:57.178Z,3.50
2019-06-26T01:01:25.918Z,3.70
2019-06-26T01:03:56.107Z,3.67
2019-06-26T01:06:41.073Z,3.50
2019-06-26T01:09:09.708Z,3.50
2019-06-26T01:11:38.404Z,3.63
2019-06-26T01:14:07.386Z,3.57
2019-06-26T01:16:35.918Z,3.73
2019-06-26T01:19:04.994Z,3.43
2019-06-26T01:21:33.639Z,3.70
2019-06-26T01:24:02.177Z,3.87
2019-06-26T01:26:30.733Z,3.77
2019-06-26T01:29:00.280Z,3.57
2019-06-26T01:31:28.834Z,3.83
2019-06-26T01:33:57.527Z,3.63
2019-06-26T01:36:26.166Z,3.73
2019-06-26T01:38:54.790Z,4.00
2019-06-26T01:41:23.346Z,4.00
2019-06-26T01:43:51.913Z,3.80
2019-06-26T01:46:20.530Z,3.90
2019-06-26T01:48:49.088Z,3.70
2019-06-26T01:51:17.654Z,3.60
2019-06-26T01:53:46.203Z,3.57
2019-06-26T01:56:14.759Z,3.80
2019-06-26T01:58:43.318Z,3.60
2019-06-26T02:01:11.883Z,4.03
2019-06-26T02:03:40.427Z,3.60
2019-06-26T02:06:08.990Z,3.70
2019-06-26T02:08:37.538Z,3.67
2019-06-26T02:11:06.155Z,3.70
2019-06-26T02:13:34.728Z,3.80
2019-06-26T02:16:03.282Z,3.80
2019-06-26T02:18:33.479Z,4.10
2019-06-26T02:21:02.047Z,3.97
2019-06-26T02:23:30.688Z,3.80
2019-06-26T02:25:59.235Z,3.90
2019-06-26T02:28:27.826Z,3.67
2019-06-26T02:30:56.385Z,4.30
2019-06-26T02:33:24.940Z,4.20
2019-06-26T02:35:53.507Z,4.23
2019-06-26T02:38:22.068Z,4.10
2019-06-26T02:40:50.620Z,4.03
2019-06-26T02:43:19.468Z,3.97
2019-06-26T02:45:48.967Z,4.10
2019-06-26T02:48:17.520Z,4.20
2019-06-26T02:50:46.090Z,4.50
2019-06-26T02:53:14.635Z,4.83
2019-06-26T02:55:43.193Z,4.37
2019-06-26T02:58:11.754Z,4.70
2019-06-26T03:00:40.367Z,4.40
2019-06-26T03:03:08.996Z,4.60
2019-06-26T03:05:37.567Z,4.90
2019-06-26T03:08:06.106Z,4.97
2019-06-26T03:10:34.684Z,4.53
2019-06-26T03:13:03.297Z,4.67
2019-06-26T03:15:31.912Z,4.70
2019-06-26T03:18:00.469Z,4.40
2019-06-26T03:20:32.101Z,5.00
2019-06-26T03:23:00.653Z,5.07
2019-06-26T03:25:29.466Z,5.10
2019-06-26T03:27:58.632Z,5.13
2019-06-26T03:30:27.224Z,4.80
2019-06-26T03:32:55.745Z,4.87
2019-06-26T03:35:24.375Z,4.80
2019-06-26T03:37:52.925Z,5.00
2019-06-26T03:40:21.542Z,4.70
2019-06-26T03:42:50.786Z,5.25
2019-06-26T03:45:25.557Z,4.97
2019-06-26T03:47:49.682Z,5.10
2019-06-26T03:50:20.283Z,5.03
2019-06-26T03:52:48.831Z,5.00
2019-06-26T03:55:17.531Z,4.93
2019-06-26T03:57:46.092Z,5.37
2019-06-26T04:00:16.458Z,4.97
2019-06-26T04:02:45.013Z,4.83
2019-06-26T04:05:13.569Z,4.87
2019-06-26T04:07:42.118Z,4.90
2019-06-26T04:10:10.983Z,5.17
2019-06-26T04:12:39.646Z,5.37
2019-06-26T04:15:08.926Z,4.97
2019-06-26T04:17:37.477Z,5.60
2019-06-26T04:20:07.977Z,5.43
2019-06-26T04:22:36.526Z,5.03
2019-06-26T04:25:06.694Z,5.13
2019-06-26T04:27:35.281Z,5.87
2019-06-26T04:30:07.711Z,5.00
2019-06-26T04:32:36.328Z,5.00
2019-06-26T04:35:06.259Z,5.23
2019-06-26T04:37:34.912Z,4.97
2019-06-26T04:40:05.772Z,5.13
2019-06-26T04:42:34.337Z,5.30
2019-06-26T04:45:02.881Z,5.23
2019-06-26T04:47:31.438Z,4.97
2019-06-26T04:50:00.420Z,5.00
2019-06-26T04:52:28.939Z,5.20
2019-06-26T04:54:57.549Z,5.07
2019-06-26T04:57:26.223Z,4.97
2019-06-26T04:59:54.766Z,5.03
2019-06-26T05:02:23.315Z,5.20
2019-06-26T05:04:51.953Z,4.70
2019-06-26T05:07:20.533Z,5.20
2019-06-26T05:09:49.087Z,4.90
2019-06-26T05:12:17.647Z,4.93
2019-06-26T05:14:46.205Z,4.97
2019-06-26T05:17:14.767Z,4.83
2019-06-26T05:19:43.425Z,4.93
2019-06-26T05:22:11.988Z,4.87
2019-06-26T05:24:40.559Z,4.90
2019-06-26T05:27:09.238Z,4.63
2019-06-26T05:29:37.777Z,5.10
2019-06-26T05:32:06.417Z,5.20
2019-06-26T05:34:34.989Z,5.20
2019-06-26T05:37:03.572Z,5.10
2019-06-26T05:39:32.197Z,4.83
2019-06-26T05:42:00.881Z,5.10
2019-06-26T05:44:29.458Z,5.20
2019-06-26T05:46:58.013Z,4.97
2019-06-26T05:49:26.575Z,5.30
2019-06-26T05:51:55.138Z,5.07
2019-06-26T05:54:23.695Z,5.03
2019-06-26T05:56:52.302Z,5.10
2019-06-26T05:59:20.827Z,5.13
2019-06-26T06:01:49.447Z,5.00
2019-06-26T06:04:18.203Z,5.30
2019-06-26T06:06:46.757Z,4.80
2019-06-26T06:09:15.296Z,5.30
2019-06-26T06:11:43.909Z,5.47
2019-06-26T06:14:12.457Z,5.10
2019-06-26T06:16:47.489Z,4.87
2019-06-26T06:19:11.495Z,5.03
2019-06-26T06:21:40.067Z,5.10
2019-06-26T06:24:08.628Z,5.27
2019-06-26T06:26:37.280Z,5.23
2019-06-26T06:29:05.946Z,4.97
2019-06-26T06:31:34.497Z,5.57
2019-06-26T06:34:03.260Z,5.13
2019-06-26T06:36:31.894Z,5.33
2019-06-26T06:39:00.425Z,5.43
2019-06-26T06:41:28.979Z,5.20
2019-06-26T06:43:57.531Z,5.27
2019-06-26T06:46:26.122Z,5.20
2019-06-26T06:48:54.691Z,5.20
2019-06-26T06:51:23.250Z,5.37
2019-06-26T06:53:51.790Z,5.20
2019-06-26T06:56:20.354Z,5.20
2019-06-26T06:58:48.894Z,5.20
2019-06-26T07:01:17.471Z,5.40
2019-06-26T07:03:46.102Z,5.50
2019-06-26T07:06:14.664Z,5.50
2019-06-26T07:08:43.254Z,5.20
2019-06-26T07:11:11.797Z,5.20
2019-06-26T07:13:40.380Z,5.10
2019-06-26T07:16:09.992Z,5.40
2019-06-26T07:18:38.593Z,5.57
2019-06-26T07:21:07.222Z,5.80
2019-06-26T07:23:35.769Z,5.20
2019-06-26T07:26:05.606Z,5.33
2019-06-26T07:28:34.143Z,5.20
2019-06-26T07:31:02.691Z,5.40
2019-06-26T07:33:31.250Z,5.03
2019-06-26T07:35:59.798Z,5.30
2019-06-26T07:38:28.363Z,5.20
2019-06-26T07:40:56.942Z,5.30
2019-06-26T07:43:25.487Z,5.43
2019-06-26T07:45:54.037Z,5.83
2019-06-26T07:48:22.618Z,5.57
2019-06-26T07:50:51.179Z,5.13
2019-06-26T07:53:19.754Z,5.67
2019-06-26T07:55:48.342Z,5.83
2019-06-26T07:58:16.975Z,5.10
2019-06-26T08:00:45.693Z,5.60
2019-06-26T08:03:14.614Z,5.50
2019-06-26T08:05:43.484Z,5.60
2019-06-26T08:08:14.569Z,6.00
2019-06-26T08:10:43.250Z,5.47
2019-06-26T08:13:11.846Z,5.67
2019-06-26T08:15:40.971Z,5.70
2019-06-26T08:18:09.633Z,5.80
2019-06-26T08:20:51.863Z,6.00
2019-06-26T08:23:09.220Z,5.90
2019-06-26T08:25:37.842Z,5.83
2019-06-26T08:28:06.363Z,5.83
2019-06-26T08:30:34.936Z,5.57
2019-06-26T08:33:03.503Z,5.80
2019-06-26T08:35:32.197Z,5.50
2019-06-26T08:38:11.080Z,5.60
2019-06-26T08:40:31.477Z,5.10
2019-06-26T08:43:00.173Z,5.30
2019-06-26T08:45:28.676Z,5.47
2019-06-26T08:47:57.249Z,5.00
2019-06-26T08:50:25.814Z,5.50
2019-06-26T08:52:54.512Z,5.00
2019-06-26T08:55:23.075Z,5.37
2019-06-26T08:57:51.796Z,5.90
2019-06-26T09:00:21.384Z,5.70
2019-06-26T09:02:50.023Z,5.37
2019-06-26T09:05:19.354Z,5.07
2019-06-26T09:07:47.918Z,5.70
2019-06-26T09:10:17.585Z,5.17
2019-06-26T09:12:46.202Z,5.40
2019-06-26T09:15:14.818Z,4.90
2019-06-26T09:17:43.439Z,5.17
2019-06-26T09:20:12.535Z,5.20
2019-06-26T09:22:41.094Z,5.60
2019-06-26T09:25:21.818Z,5.00
2019-06-26T09:27:41.587Z,4.70
2019-06-26T09:30:10.789Z,4.90
2019-06-26T09:32:39.358Z,5.10
2019-06-26T09:35:08.148Z,5.10
2019-06-26T09:37:36.673Z,5.03
2019-06-26T09:40:06.788Z,5.10
2019-06-26T09:42:35.430Z,5.30
2019-06-26T09:45:06.529Z,5.57
2019-06-26T09:47:35.160Z,5.33
2019-06-26T09:50:07.097Z,5.40
2019-06-26T09:52:35.645Z,5.47
2019-06-26T09:55:06.512Z,5.03
2019-06-26T09:57:35.118Z,5.07
2019-06-26T10:00:08.039Z,4.70
2019-06-26T10:02:36.586Z,5.43
2019-06-26T10:05:06.755Z,5.10
2019-06-26T10:07:35.385Z,5.47
2019-06-26T10:10:04.873Z,5.07
2019-06-26T10:12:33.487Z,5.50
2019-06-26T10:15:02.134Z,5.40
2019-06-26T10:17:30.658Z,5.10
2019-06-26T10:19:59.352Z,6.00
2019-06-26T10:22:27.897Z,5.90
2019-06-26T10:24:56.529Z,5.47
2019-06-26T10:27:25.143Z,5.70
2019-06-26T10:29:53.779Z,5.37
2019-06-26T10:32:22.321Z,5.20
2019-06-26T10:34:50.882Z,5.30
2019-06-26T10:37:19.443Z,5.50
2019-06-26T10:39:48.006Z,5.30
2019-06-26T10:42:16.560Z,5.00
2019-06-26T10:44:45.124Z,5.17
2019-06-26T10:47:13.707Z,5.13
2019-06-26T10:49:42.261Z,5.00
2019-06-26T10:52:10.909Z,4.70
2019-06-26T10:54:39.429Z,5.37
2019-06-26T10:57:08.007Z,4.70
2019-06-26T10:59:36.574Z,4.60
2019-06-26T11:02:05.319Z,5.10
2019-06-26T11:04:33.942Z,4.40
2019-06-26T11:07:02.565Z,4.80
2019-06-26T11:09:31.163Z,4.73
2019-06-26T11:11:59.713Z,4.80
2019-06-26T11:14:28.328Z,4.87
2019-06-26T11:16:56.844Z,4.60
2019-06-26T11:19:25.565Z,4.53
2019-06-26T11:21:54.046Z,4.40
2019-06-26T11:24:23.874Z,4.83
2019-06-26T11:26:52.438Z,4.67
2019-06-26T11:29:20.993Z,4.40
2019-06-26T11:31:49.666Z,4.57
2019-06-26T11:34:18.225Z,4.50
2019-06-26T11:37:02.731Z,4.40
2019-06-26T11:39:17.052Z,4.50
2019-06-26T11:41:45.635Z,4.87
2019-06-26T11:44:14.163Z,4.70
2019-06-26T11:46:42.852Z,4.50
2019-06-26T11:49:11.766Z,4.10
2019-06-26T11:51:40.345Z,4.30
2019-06-26T11:54:08.940Z,4.50
2019-06-26T11:56:37.564Z,4.33
2019-06-26T11:59:06.266Z,5.07
2019-06-26T12:01:34.834Z,4.40
2019-06-26T12:04:03.524Z,4.20
2019-06-26T12:06:32.088Z,4.30
2019-06-26T12:09:00.631Z,4.47
2019-06-26T12:58:44.941Z,4.20
2019-06-26T13:04:45.127Z,3.73
2019-06-26T13:07:13.907Z,3.80
2019-06-26T13:09:42.515Z,3.80
2019-06-26T13:12:11.141Z,3.63
2019-06-26T13:14:39.722Z,3.90
2019-06-26T13:17:08.395Z,4.57
2019-06-26T13:19:36.934Z,4.13
2019-06-26T13:22:05.651Z,4.20
2019-06-26T13:24:34.305Z,4.13
2019-06-26T13:27:02.870Z,4.30
2019-06-26T13:29:31.489Z,4.37
2019-06-26T13:32:00.076Z,4.23
2019-06-26T13:34:28.617Z,3.70
2019-06-26T13:36:57.247Z,3.70
2019-06-26T13:39:25.822Z,3.60
2019-06-26T13:41:54.367Z,3.60
2019-06-26T13:44:22.919Z,3.50
2019-06-26T13:46:51.537Z,3.40
2019-06-26T13:49:20.116Z,3.60
2019-06-26T13:51:48.666Z,3.30
2019-06-26T13:54:17.240Z,3.20
2019-06-26T13:56:45.797Z,3.47
2019-06-26T13:59:14.341Z,2.80
2019-06-26T14:01:42.913Z,3.00
2019-06-26T14:04:11.535Z,3.30
2019-06-26T14:06:40.107Z,2.80
2019-06-26T14:09:08.973Z,2.87
2019-06-26T14:11:37.534Z,3.00
2019-06-26T14:14:06.086Z,3.10
2019-06-26T14:16:34.664Z,3.02
2019-06-26T14:19:03.249Z,3.12
2019-06-26T14:21:31.817Z,2.85
2019-06-26T14:24:00.382Z,3.00
2019-06-26T14:26:28.986Z,2.98
2019-06-26T14:28:57.547Z,2.77
2019-06-26T14:31:26.106Z,3.10
2019-06-26T14:33:54.677Z,3.10
2019-06-26T14:36:23.560Z,2.70
2019-06-26T14:38:52.695Z,3.37
2019-06-26T14:41:21.463Z,2.80
2019-06-26T14:43:50.013Z,2.83
2019-06-26T14:46:18.638Z,3.02
2019-06-26T14:48:47.286Z,3.15
2019-06-26T14:51:15.845Z,3.15
2019-06-26T14:53:44.442Z,3.17
2019-06-26T14:56:14.927Z,3.20
2019-06-26T14:58:43.478Z,3.08
2019-06-26T15:01:12.039Z,3.20
2019-06-26T15:03:40.598Z,3.00
2019-06-26T15:06:16.571Z,2.80
2019-06-26T15:08:39.392Z,2.83
2019-06-26T15:11:08.090Z,2.80
2019-06-26T15:13:36.750Z,2.70
2019-06-26T15:16:05.399Z,2.50
2019-06-26T15:18:34.132Z,2.70
2019-06-26T15:21:02.758Z,2.70
2019-06-26T15:23:31.376Z,3.00
2019-06-26T15:26:00.059Z,2.50
2019-06-26T15:28:28.617Z,2.50
2019-06-26T15:30:57.247Z,2.90
2019-06-26T15:33:26.027Z,2.50
2019-06-26T15:35:54.651Z,2.75
2019-06-26T15:38:23.249Z,2.67
2019-06-26T15:40:51.826Z,2.40
2019-06-26T15:43:20.390Z,2.60
2019-06-26T15:45:49.018Z,2.30
2019-06-26T15:48:17.592Z,2.33
2019-06-26T15:50:46.241Z,2.50
2019-06-26T15:53:14.799Z,2.50
2019-06-26T15:55:43.361Z,2.52
2019-06-26T15:58:11.932Z,2.37
2019-06-26T16:00:40.479Z,2.40
2019-06-26T16:03:09.178Z,2.42
2019-06-26T16:05:37.832Z,2.40
2019-06-26T16:08:06.378Z,2.50
2019-06-26T16:10:35.021Z,2.85
2019-06-26T16:13:03.648Z,2.50
2019-06-26T16:15:33.099Z,2.65
2019-06-26T16:18:21.509Z,2.67
2019-06-26T16:20:50.059Z,2.80
2019-06-26T16:23:18.622Z,3.15
2019-06-26T16:25:47.195Z,3.02
2019-06-26T16:28:15.765Z,3.10
2019-06-26T16:30:44.322Z,3.00
2019-06-26T16:33:12.925Z,2.90
2019-06-26T16:35:41.478Z,2.85
2019-06-26T16:38:10.070Z,3.27
2019-06-26T16:40:38.651Z,3.40
2019-06-26T16:43:07.212Z,3.33
2019-06-26T16:45:35.834Z,3.90
2019-06-26T16:48:04.558Z,3.60
2019-06-26T16:50:33.048Z,3.83
2019-06-26T16:53:01.621Z,3.97
2019-06-26T16:55:30.357Z,3.63
2019-06-26T16:57:58.898Z,3.43
2019-06-26T17:00:27.367Z,3.37
2019-06-26T17:02:56.069Z,3.60
2019-06-26T17:05:24.674Z,3.00
2019-06-26T17:07:53.218Z,3.43
2019-06-26T17:10:21.929Z,3.23
2019-06-26T17:12:52.127Z,3.23
2019-06-26T17:15:20.836Z,3.00
2019-06-26T17:17:49.403Z,3.37
2019-06-26T17:20:18.517Z,3.20
2019-06-26T17:22:47.079Z,3.10
2019-06-26T17:25:15.783Z,3.20
2019-06-26T17:27:44.427Z,3.20
2019-06-26T17:30:14.064Z,3.57
2019-06-26T17:32:42.674Z,3.10
2019-06-26T17:35:11.998Z,3.23
2019-06-26T17:37:53.477Z,3.10
2019-06-26T17:40:29.590Z,3.08
2019-06-26T17:43:11.310Z,2.83
2019-06-26T17:45:30.144Z,2.83
2019-06-26T17:47:58.794Z,2.70
2019-06-26T17:50:27.367Z,2.65
2019-06-26T17:52:55.918Z,2.65
2019-06-26T17:55:24.572Z,2.75
2019-06-26T17:57:53.248Z,2.60
2019-06-26T18:00:24.880Z,3.00
2019-06-26T18:02:53.429Z,3.10
2019-06-26T18:05:22.037Z,3.00
2019-06-26T18:07:50.980Z,2.90
2019-06-26T18:10:19.550Z,2.90
2019-06-26T18:12:48.127Z,3.47
2019-06-26T18:15:18.542Z,3.13
2019-06-26T18:17:47.216Z,3.40
2019-06-26T18:20:16.175Z,3.57
2019-06-26T18:22:44.754Z,3.80
2019-06-26T18:25:16.440Z,3.87
2019-06-26T18:27:43.777Z,4.13
2019-06-26T18:30:13.359Z,4.30
2019-06-26T18:32:42.099Z,4.53
2019-06-26T18:35:11.124Z,4.70
2019-06-26T18:37:39.674Z,4.73
2019-06-26T18:40:08.864Z,4.87
2019-06-26T18:42:37.566Z,5.80
2019-06-26T18:45:07.064Z,7.00
2019-06-26T18:47:35.686Z,5.97
2019-06-26T18:50:06.405Z,6.30
2019-06-26T18:52:35.046Z,6.30
2019-06-26T18:55:07.429Z,7.10
2019-06-26T18:57:39.793Z,7.23
2019-06-26T19:00:09.534Z,6.87
2019-06-26T19:02:38.573Z,7.47
2019-06-26T19:05:09.094Z,7.23
2019-06-26T19:07:39.790Z,7.37
2019-06-26T19:10:27.708Z,7.77
2019-06-26T19:12:56.278Z,7.13
2019-06-26T19:15:25.033Z,7.83
2019-06-26T19:17:54.263Z,7.43
2019-06-26T19:20:22.890Z,7.37
2019-06-26T19:22:51.470Z,7.53
2019-06-26T19:25:20.128Z,7.20
2019-06-26T19:27:48.674Z,7.20
2019-06-26T19:30:17.923Z,6.97
2019-06-26T19:32:46.568Z,7.50
2019-06-26T19:35:19.455Z,7.37
2019-06-26T19:37:45.499Z,6.77
2019-06-26T19:40:14.906Z,6.27
2019-06-26T19:42:43.456Z,6.83
2019-06-26T19:45:12.858Z,6.97
2019-06-26T19:47:41.445Z,6.27
2019-06-26T19:50:11.379Z,6.70
2019-06-26T19:52:39.997Z,7.33
2019-06-26T19:55:09.402Z,6.30
2019-06-26T19:57:37.970Z,6.10
2019-06-26T20:00:08.907Z,6.47
2019-06-26T20:02:37.622Z,6.63
2019-06-26T20:05:07.340Z,6.47
2019-06-26T20:07:35.959Z,6.70
2019-06-26T20:10:06.860Z,7.00
2019-06-26T20:12:35.478Z,6.73
2019-06-26T20:15:07.438Z,7.13
2019-06-26T20:17:36.077Z,7.03
2019-06-26T20:20:06.518Z,6.97
2019-06-26T20:22:35.177Z,7.17
2019-06-26T20:25:05.666Z,6.93
2019-06-26T20:27:34.282Z,6.90
2019-06-26T20:30:03.483Z,6.50
2019-06-26T20:32:32.101Z,7.60
2019-06-26T20:35:00.625Z,6.90
2019-06-26T20:37:29.218Z,6.90
2019-06-26T20:39:57.981Z,6.57
2019-06-26T20:42:26.529Z,6.37
2019-06-26T20:44:55.094Z,6.80
2019-06-26T20:47:23.679Z,6.87
2019-06-26T20:49:53.615Z,6.93
2019-06-26T20:52:22.394Z,6.93
2019-06-26T20:55:00.724Z,7.07
2019-06-26T20:57:21.430Z,6.40
2019-06-26T20:59:49.993Z,7.03
2019-06-26T21:02:18.699Z,6.80
2019-06-26T21:04:47.238Z,6.90
2019-06-26T21:07:16.918Z,6.80
2019-06-26T21:09:45.583Z,6.33
2019-06-26T21:12:14.120Z,6.67
2019-06-26T21:14:42.768Z,7.50
2019-06-26T21:17:11.360Z,6.93
2019-06-26T21:19:39.923Z,6.23
2019-06-26T21:22:09.121Z,6.53
2019-06-26T21:24:37.975Z,6.70
2019-06-26T21:27:06.496Z,6.67
2019-06-26T21:29:35.071Z,6.53
2019-06-26T21:32:03.718Z,6.93
2019-06-26T21:34:32.275Z,7.20
2019-06-26T21:37:00.917Z,6.40
2019-06-26T21:39:29.502Z,7.17
2019-06-26T21:41:58.143Z,6.97
2019-06-26T21:44:26.788Z,6.40
2019-06-26T21:46:55.526Z,6.90
2019-06-26T21:49:24.153Z,6.73
2019-06-26T21:51:52.722Z,6.67
2019-06-26T21:54:21.373Z,7.07
2019-06-26T21:56:49.944Z,6.80
2019-06-26T21:59:18.515Z,6.37
2019-06-26T22:01:47.242Z,6.73
2019-06-26T22:04:16.062Z,7.23
2019-06-26T22:06:45.111Z,6.73
2019-06-26T22:09:14.817Z,7.17
2019-06-26T22:11:43.446Z,6.50
2019-06-26T22:14:12.013Z,7.40
2019-06-26T22:16:40.762Z,6.60
2019-06-26T22:19:09.430Z,7.53
2019-06-26T22:21:38.026Z,6.23
2019-06-26T22:24:06.717Z,6.37
2019-06-26T22:26:35.286Z,6.57
2019-06-26T22:29:03.855Z,6.40
2019-06-26T22:31:32.720Z,6.80
2019-06-26T22:34:01.378Z,5.90
2019-06-26T22:36:30.060Z,6.17
2019-06-26T22:38:58.902Z,6.50
2019-06-26T22:41:27.532Z,6.57
2019-06-26T22:43:56.101Z,6.80
2019-06-26T22:46:24.689Z,6.40
2019-06-26T22:48:53.314Z,6.50
2019-06-26T22:51:21.890Z,6.80
2019-06-26T22:53:50.494Z,6.27
2019-06-26T22:56:19.134Z,6.60
2019-06-26T22:58:47.721Z,5.93
2019-06-26T23:01:16.361Z,5.87
2019-06-26T23:03:44.942Z,6.13
2019-06-26T23:06:13.548Z,6.47
2019-06-26T23:08:42.153Z,6.37
2019-06-26T23:11:10.752Z,6.30
2019-06-26T23:13:39.401Z,5.93
2019-06-26T23:16:08.103Z,5.93
2019-06-26T23:18:36.685Z,5.90
2019-06-26T23:21:05.410Z,6.17
2019-06-26T23:23:34.086Z,5.63
2019-06-26T23:26:02.671Z,6.00
2019-06-26T23:28:31.323Z,6.33
2019-06-26T23:30:59.934Z,5.70
2019-06-26T23:33:28.495Z,5.77
2019-06-26T23:35:57.068Z,6.57
2019-06-26T23:38:25.723Z,6.07
2019-06-26T23:40:54.267Z,6.07
2019-06-26T23:43:23.057Z,5.40
2019-06-26T23:45:51.641Z,5.30
2019-06-26T23:48:20.412Z,5.20
2019-06-26T23:50:49.012Z,5.47
2019-06-26T23:53:17.596Z,5.30
2019-06-26T23:55:46.393Z,5.30
2019-06-26T23:58:14.963Z,5.33
